Portada
METAR-TAF:

METAR-TAF

Aeropuertos :

Aeropuerto de Chinandega

Chinandega, Nicaragua

latitud: 12-38N, longitud: 087-08W, altitud: 53 m

Observación

El informe se hizo hace 23 horas y 40 minutos, a las 23:00 UTC
Viento 6 kt del norte
Temperatura 25°C
Humedad 89%
Presión 1010 hPa
Visibilidad: 5000 m
Escasas nubes a una altura de 2200 ft, Cumulonimbus.
Nubes dispersas a una altura de 2300 ft
tormenta, lluvia

METAR: MNCH 252300Z 36006KT 5000 TSRA FEW022CB SCT023 25/23 Q1010 CB NE E SE S SW

Hora: 16:40 (22:40 UTC)


TAF: falta

Observaciones y pronósticos meteorológicos de más de 4000 aeropuertos (mensajes METAR y TAF).

Los puntos amarillos y rojos representan las estaciones disponibles.

Ponga el ratón en el punto deseado para ver el nombre de la estación.

Haga clic para ver las observaciones y los pronósticos meteorológicos.

Para cambiar el mapa : haga clic en los botones verdes con una cruz de color negro para hacer un zoom, en el botón verde con un guión para alejar o en las flechas verdes para mapas adyacentes.


METAR-TAF: